首页
METAR-TAF:

METAR-TAF

机场 :

塔斯卡卢萨, 阿拉巴马州, 美国

纬度: 33-12-43N, 经度: 087-36-57W, 海拔: 52米

当前天气观测

该预报发布于25分钟前的03:53 UTC
风速10节,风向
温度 4°C
湿度 81%
气压 1031 hPa
能見度: 16.1公里
散云层高于2500英尺
多云层高于7000英尺

METAR: KTCL 210353Z 36010KT 10SM SCT025 BKN070 04/01 A3046 RMK AO2 SLP315 T00440006

时间: 22:18 (04:18 UTC)

预报

该预报发布于4小时和39分钟前的23:39 UTC
预报有效从21日的 00点(UTC)到 21日的 24点(UTC)
风速12节,风向,有时为20节阵风
能見度: 10公里
多云层高于1500英尺
阴天层高于2500英尺
从 21日的 0200点(UTC)
风速12节,风向,有时为20节阵风
能見度: 10公里
阴天层高于2500英尺
从 21日的 0500点(UTC)
风速10节,风向,有时为20节阵风
能見度: 10公里
散云层高于7000英尺
从 21日的 1000点(UTC)
风速9节,风向
能見度: 10公里
天空无云

TAF: KTCL 202339Z 2100/2124 36012G20KT P6SM BKN015 OVC025 FM210200 36012G20KT P6SM OVC025 FM210500 36010G20KT P6SM SCT070 FM211000 01009KT P6SM SKC

超过4000个机场的气象观测和天气预报(METAR&TAF报告)。

可查询的气象台以黄色和红色小点在地图上表示。

将鼠标移到小点上方,可查看气象台名称。

然后点击查看天气观测和预报。

如需切换地图:点击带黑十字的绿色按钮放大地图;点击带横线的绿色按钮缩小地图;或者点击绿色箭头查看邻近地区的地图。


METAR-TAF: